sensor_id;sensor_type;location;lat;lon;timestamp;temperature;humidity
60313;DHT22;46158;52.850;6.970;2023-03-31T00:00:03;15.80;73.70
60313;DHT22;46158;52.850;6.970;2023-03-31T00:02:37;15.80;73.70
60313;DHT22;46158;52.850;6.970;2023-03-31T00:05:07;15.80;73.70
60313;DHT22;46158;52.850;6.970;2023-03-31T00:07:36;15.80;73.60
60313;DHT22;46158;52.850;6.970;2023-03-31T00:10:24;15.80;73.60
60313;DHT22;46158;52.850;6.970;2023-03-31T00:12:53;15.80;73.60
60313;DHT22;46158;52.850;6.970;2023-03-31T00:15:19;15.80;73.60
60313;DHT22;46158;52.850;6.970;2023-03-31T00:17:45;15.80;73.60
60313;DHT22;46158;52.850;6.970;2023-03-31T00:20:12;15.80;73.50
60313;DHT22;46158;52.850;6.970;2023-03-31T00:22:39;15.80;73.50
60313;DHT22;46158;52.850;6.970;2023-03-31T00:25:08;15.70;73.40
60313;DHT22;46158;52.850;6.970;2023-03-31T00:27:35;15.70;73.40
60313;DHT22;46158;52.850;6.970;2023-03-31T00:30:04;15.70;73.40
60313;DHT22;46158;52.850;6.970;2023-03-31T00:32:29;15.70;73.30
60313;DHT22;46158;52.850;6.970;2023-03-31T00:35:01;15.70;73.40
60313;DHT22;46158;52.850;6.970;2023-03-31T00:37:28;15.70;73.30
60313;DHT22;46158;52.850;6.970;2023-03-31T00:39:55;15.70;73.30
60313;DHT22;46158;52.850;6.970;2023-03-31T00:42:21;15.70;73.30
60313;DHT22;46158;52.850;6.970;2023-03-31T00:45:29;15.70;73.20
60313;DHT22;46158;52.850;6.970;2023-03-31T00:48:15;15.70;73.00
60313;DHT22;46158;52.850;6.970;2023-03-31T00:50:50;15.60;73.20
60313;DHT22;46158;52.850;6.970;2023-03-31T00:53:20;15.60;73.20
60313;DHT22;46158;52.850;6.970;2023-03-31T00:55:50;15.70;73.20
60313;DHT22;46158;52.850;6.970;2023-03-31T00:58:17;15.60;73.10
60313;DHT22;46158;52.850;6.970;2023-03-31T01:00:49;15.60;73.20
60313;DHT22;46158;52.850;6.970;2023-03-31T01:03:19;15.60;73.10
60313;DHT22;46158;52.850;6.970;2023-03-31T01:05:54;15.60;73.10
60313;DHT22;46158;52.850;6.970;2023-03-31T01:08:23;15.60;73.10
60313;DHT22;46158;52.850;6.970;2023-03-31T01:10:56;15.60;73.10
60313;DHT22;46158;52.850;6.970;2023-03-31T01:13:23;15.60;73.10
60313;DHT22;46158;52.850;6.970;2023-03-31T01:15:54;15.60;73.10
60313;DHT22;46158;52.850;6.970;2023-03-31T01:18:24;15.60;73.00
60313;DHT22;46158;52.850;6.970;2023-03-31T01:35:41;15.50;73.00
60313;DHT22;46158;52.850;6.970;2023-03-31T01:38:37;15.50;73.00
60313;DHT22;46158;52.850;6.970;2023-03-31T01:47:06;15.50;72.90
60313;DHT22;46158;52.850;6.970;2023-03-31T01:50:08;15.40;72.80
60313;DHT22;46158;52.850;6.970;2023-03-31T01:52:49;15.40;72.90
60313;DHT22;46158;52.850;6.970;2023-03-31T01:55:18;15.40;72.90
60313;DHT22;46158;52.850;6.970;2023-03-31T01:57:52;15.40;73.00
60313;DHT22;46158;52.850;6.970;2023-03-31T02:00:26;15.40;72.90
60313;DHT22;46158;52.850;6.970;2023-03-31T02:03:20;15.40;73.00
60313;DHT22;46158;52.850;6.970;2023-03-31T02:05:53;15.40;72.80
60313;DHT22;46158;52.850;6.970;2023-03-31T02:08:30;15.40;73.00
60313;DHT22;46158;52.850;6.970;2023-03-31T02:10:57;15.30;72.90
60313;DHT22;46158;52.850;6.970;2023-03-31T02:13:25;15.30;72.90
60313;DHT22;46158;52.850;6.970;2023-03-31T02:15:56;15.30;72.90
60313;DHT22;46158;52.850;6.970;2023-03-31T02:18:27;15.30;72.90
60313;DHT22;46158;52.850;6.970;2023-03-31T02:20:57;15.30;72.90
60313;DHT22;46158;52.850;6.970;2023-03-31T02:23:27;15.30;72.80
60313;DHT22;46158;52.850;6.970;2023-03-31T02:26:06;15.30;72.90
60313;DHT22;46158;52.850;6.970;2023-03-31T02:28:32;15.30;72.80
60313;DHT22;46158;52.850;6.970;2023-03-31T02:33:39;15.30;72.80
60313;DHT22;46158;52.850;6.970;2023-03-31T02:36:05;15.30;72.80
60313;DHT22;46158;52.850;6.970;2023-03-31T02:38:41;15.30;72.80
60313;DHT22;46158;52.850;6.970;2023-03-31T02:41:08;15.30;72.70
60313;DHT22;46158;52.850;6.970;2023-03-31T02:43:37;15.30;72.80
60313;DHT22;46158;52.850;6.970;2023-03-31T02:46:03;15.20;72.80
60313;DHT22;46158;52.850;6.970;2023-03-31T02:48:41;15.20;72.70
60313;DHT22;46158;52.850;6.970;2023-03-31T02:54:35;15.20;72.60
60313;DHT22;46158;52.850;6.970;2023-03-31T03:08:13;15.20;72.70
60313;DHT22;46158;52.850;6.970;2023-03-31T03:16:24;15.10;72.60
60313;DHT22;46158;52.850;6.970;2023-03-31T03:18:59;15.10;72.80
60313;DHT22;46158;52.850;6.970;2023-03-31T03:21:27;15.10;72.60
60313;DHT22;46158;52.850;6.970;2023-03-31T03:23:53;15.10;72.70
60313;DHT22;46158;52.850;6.970;2023-03-31T03:26:19;15.10;72.70
60313;DHT22;46158;52.850;6.970;2023-03-31T03:28:50;15.10;72.70
60313;DHT22;46158;52.850;6.970;2023-03-31T03:31:16;15.10;72.70
60313;DHT22;46158;52.850;6.970;2023-03-31T03:33:42;15.10;72.70
60313;DHT22;46158;52.850;6.970;2023-03-31T03:36:08;15.10;72.70
60313;DHT22;46158;52.850;6.970;2023-03-31T03:38:33;15.10;72.60
60313;DHT22;46158;52.850;6.970;2023-03-31T03:40:59;15.10;72.60
60313;DHT22;46158;52.850;6.970;2023-03-31T03:43:25;15.00;72.60
60313;DHT22;46158;52.850;6.970;2023-03-31T03:45:51;15.00;72.60
60313;DHT22;46158;52.850;6.970;2023-03-31T03:48:19;15.00;72.60
60313;DHT22;46158;52.850;6.970;2023-03-31T03:50:46;15.00;72.60
60313;DHT22;46158;52.850;6.970;2023-03-31T03:53:15;15.00;72.60
60313;DHT22;46158;52.850;6.970;2023-03-31T03:55:41;15.00;72.50
60313;DHT22;46158;52.850;6.970;2023-03-31T03:58:06;15.00;72.60
60313;DHT22;46158;52.850;6.970;2023-03-31T04:00:39;15.00;72.60
60313;DHT22;46158;52.850;6.970;2023-03-31T04:03:11;15.00;72.50
60313;DHT22;46158;52.850;6.970;2023-03-31T04:05:37;15.00;72.50
60313;DHT22;46158;52.850;6.970;2023-03-31T04:08:02;15.00;72.60
60313;DHT22;46158;52.850;6.970;2023-03-31T04:10:30;15.00;72.60
60313;DHT22;46158;52.850;6.970;2023-03-31T04:12:56;15.00;72.50
60313;DHT22;46158;52.850;6.970;2023-03-31T04:15:32;15.00;72.50
60313;DHT22;46158;52.850;6.970;2023-03-31T04:18:01;15.00;72.50
60313;DHT22;46158;52.850;6.970;2023-03-31T04:20:38;14.90;72.40
60313;DHT22;46158;52.850;6.970;2023-03-31T04:23:04;14.90;72.40
60313;DHT22;46158;52.850;6.970;2023-03-31T04:25:34;14.90;72.40
60313;DHT22;46158;52.850;6.970;2023-03-31T04:28:03;14.90;72.30
60313;DHT22;46158;52.850;6.970;2023-03-31T04:30:31;14.90;72.70
60313;DHT22;46158;52.850;6.970;2023-03-31T04:33:01;14.90;72.50
60313;DHT22;46158;52.850;6.970;2023-03-31T04:35:29;14.90;72.50
60313;DHT22;46158;52.850;6.970;2023-03-31T04:38:07;14.90;72.50
60313;DHT22;46158;52.850;6.970;2023-03-31T04:40:33;14.90;72.50
60313;DHT22;46158;52.850;6.970;2023-03-31T04:43:00;14.90;72.50
60313;DHT22;46158;52.850;6.970;2023-03-31T04:45:26;14.90;72.50
60313;DHT22;46158;52.850;6.970;2023-03-31T04:47:52;14.90;72.50
60313;DHT22;46158;52.850;6.970;2023-03-31T04:50:17;14.90;72.40
60313;DHT22;46158;52.850;6.970;2023-03-31T04:52:43;14.90;72.40
60313;DHT22;46158;52.850;6.970;2023-03-31T04:55:12;14.90;72.50
60313;DHT22;46158;52.850;6.970;2023-03-31T04:57:37;14.80;72.40
60313;DHT22;46158;52.850;6.970;2023-03-31T05:00:04;14.80;72.40
60313;DHT22;46158;52.850;6.970;2023-03-31T05:02:32;14.80;72.40
60313;DHT22;46158;52.850;6.970;2023-03-31T05:04:58;14.80;72.40
60313;DHT22;46158;52.850;6.970;2023-03-31T05:07:24;14.80;72.40
60313;DHT22;46158;52.850;6.970;2023-03-31T05:09:49;14.80;72.50
60313;DHT22;46158;52.850;6.970;2023-03-31T05:12:15;14.80;72.50
60313;DHT22;46158;52.850;6.970;2023-03-31T05:14:41;14.80;72.50
60313;DHT22;46158;52.850;6.970;2023-03-31T05:17:06;14.80;72.50
60313;DHT22;46158;52.850;6.970;2023-03-31T05:19:32;14.80;72.60
60313;DHT22;46158;52.850;6.970;2023-03-31T05:21:58;14.80;72.60
60313;DHT22;46158;52.850;6.970;2023-03-31T05:24:24;14.80;72.60
60313;DHT22;46158;52.850;6.970;2023-03-31T05:26:49;14.80;72.70
60313;DHT22;46158;52.850;6.970;2023-03-31T05:29:20;14.80;72.70
60313;DHT22;46158;52.850;6.970;2023-03-31T05:31:46;14.80;72.70
60313;DHT22;46158;52.850;6.970;2023-03-31T05:34:13;14.80;72.80
60313;DHT22;46158;52.850;6.970;2023-03-31T05:36:39;14.80;72.90
60313;DHT22;46158;52.850;6.970;2023-03-31T05:39:05;14.80;73.00
60313;DHT22;46158;52.850;6.970;2023-03-31T05:41:32;14.80;73.10
60313;DHT22;46158;52.850;6.970;2023-03-31T05:43:58;14.80;73.20
60313;DHT22;46158;52.850;6.970;2023-03-31T05:46:24;14.80;73.20
60313;DHT22;46158;52.850;6.970;2023-03-31T05:48:51;14.80;73.40
60313;DHT22;46158;52.850;6.970;2023-03-31T05:51:16;14.80;73.40
60313;DHT22;46158;52.850;6.970;2023-03-31T05:53:42;14.80;73.50
60313;DHT22;46158;52.850;6.970;2023-03-31T05:56:09;14.80;74.30
60313;DHT22;46158;52.850;6.970;2023-03-31T05:58:35;14.90;73.70
60313;DHT22;46158;52.850;6.970;2023-03-31T06:01:05;14.90;73.80
60313;DHT22;46158;52.850;6.970;2023-03-31T06:03:33;14.90;73.80
60313;DHT22;46158;52.850;6.970;2023-03-31T06:05:58;14.90;73.90
60313;DHT22;46158;52.850;6.970;2023-03-31T06:08:24;14.90;73.90
60313;DHT22;46158;52.850;6.970;2023-03-31T06:10:50;14.90;74.00
60313;DHT22;46158;52.850;6.970;2023-03-31T06:13:16;14.90;74.00
60313;DHT22;46158;52.850;6.970;2023-03-31T06:15:42;14.90;74.10
60313;DHT22;46158;52.850;6.970;2023-03-31T06:18:08;14.90;74.20
60313;DHT22;46158;52.850;6.970;2023-03-31T06:20:35;14.90;74.30
60313;DHT22;46158;52.850;6.970;2023-03-31T06:23:01;14.90;74.30
60313;DHT22;46158;52.850;6.970;2023-03-31T06:25:27;14.90;74.40
60313;DHT22;46158;52.850;6.970;2023-03-31T06:27:53;15.00;74.50
60313;DHT22;46158;52.850;6.970;2023-03-31T06:30:18;14.90;74.50
60313;DHT22;46158;52.850;6.970;2023-03-31T06:32:44;15.00;74.50
60313;DHT22;46158;52.850;6.970;2023-03-31T06:35:10;15.00;74.50
60313;DHT22;46158;52.850;6.970;2023-03-31T06:37:36;15.00;74.60
60313;DHT22;46158;52.850;6.970;2023-03-31T06:40:02;15.00;74.60
60313;DHT22;46158;52.850;6.970;2023-03-31T06:42:28;15.00;74.70
60313;DHT22;46158;52.850;6.970;2023-03-31T06:44:55;15.00;74.70
60313;DHT22;46158;52.850;6.970;2023-03-31T06:47:20;15.00;74.80
60313;DHT22;46158;52.850;6.970;2023-03-31T06:49:46;15.00;74.80
60313;DHT22;46158;52.850;6.970;2023-03-31T06:52:12;15.00;74.80
60313;DHT22;46158;52.850;6.970;2023-03-31T06:54:39;15.00;74.90
60313;DHT22;46158;52.850;6.970;2023-03-31T06:57:05;15.00;74.90
60313;DHT22;46158;52.850;6.970;2023-03-31T06:59:30;15.00;74.90
60313;DHT22;46158;52.850;6.970;2023-03-31T07:01:56;15.00;75.00
60313;DHT22;46158;52.850;6.970;2023-03-31T07:04:22;15.00;75.00
60313;DHT22;46158;52.850;6.970;2023-03-31T07:06:48;15.00;75.00
60313;DHT22;46158;52.850;6.970;2023-03-31T07:09:13;15.10;75.00
60313;DHT22;46158;52.850;6.970;2023-03-31T07:11:40;15.00;75.10
60313;DHT22;46158;52.850;6.970;2023-03-31T07:14:05;15.10;75.10
60313;DHT22;46158;52.850;6.970;2023-03-31T07:16:31;15.10;75.20
60313;DHT22;46158;52.850;6.970;2023-03-31T07:18:57;15.10;75.20
60313;DHT22;46158;52.850;6.970;2023-03-31T07:21:24;15.10;75.20
60313;DHT22;46158;52.850;6.970;2023-03-31T07:23:50;15.10;75.30
60313;DHT22;46158;52.850;6.970;2023-03-31T07:26:16;15.10;75.30
60313;DHT22;46158;52.850;6.970;2023-03-31T07:28:42;15.10;75.30
60313;DHT22;46158;52.850;6.970;2023-03-31T07:31:15;15.10;75.30
60313;DHT22;46158;52.850;6.970;2023-03-31T07:33:41;15.10;75.40
60313;DHT22;46158;52.850;6.970;2023-03-31T07:36:07;15.10;75.40
60313;DHT22;46158;52.850;6.970;2023-03-31T07:38:33;15.10;75.40
60313;DHT22;46158;52.850;6.970;2023-03-31T07:40:59;15.10;75.40
60313;DHT22;46158;52.850;6.970;2023-03-31T07:43:25;15.10;75.60
60313;DHT22;46158;52.850;6.970;2023-03-31T07:45:51;15.10;75.60
60313;DHT22;46158;52.850;6.970;2023-03-31T07:48:16;15.10;75.60
60313;DHT22;46158;52.850;6.970;2023-03-31T07:50:42;15.20;75.70
60313;DHT22;46158;52.850;6.970;2023-03-31T07:53:08;15.20;75.70
60313;DHT22;46158;52.850;6.970;2023-03-31T07:55:34;15.20;75.80
60313;DHT22;46158;52.850;6.970;2023-03-31T07:58:00;15.20;75.80
60313;DHT22;46158;52.850;6.970;2023-03-31T08:00:27;15.20;75.90
60313;DHT22;46158;52.850;6.970;2023-03-31T08:02:52;15.20;75.90
60313;DHT22;46158;52.850;6.970;2023-03-31T08:05:19;15.20;75.90
60313;DHT22;46158;52.850;6.970;2023-03-31T08:07:48;15.20;75.90
60313;DHT22;46158;52.850;6.970;2023-03-31T08:10:18;15.20;76.00
60313;DHT22;46158;52.850;6.970;2023-03-31T08:12:44;15.20;75.90
60313;DHT22;46158;52.850;6.970;2023-03-31T08:15:10;15.20;76.00
60313;DHT22;46158;52.850;6.970;2023-03-31T08:17:36;15.20;76.00
60313;DHT22;46158;52.850;6.970;2023-03-31T08:20:03;15.20;76.00
60313;DHT22;46158;52.850;6.970;2023-03-31T08:22:33;15.20;76.10
60313;DHT22;46158;52.850;6.970;2023-03-31T08:24:58;15.20;76.10
60313;DHT22;46158;52.850;6.970;2023-03-31T08:27:24;15.20;76.10
60313;DHT22;46158;52.850;6.970;2023-03-31T08:29:50;15.20;76.20
60313;DHT22;46158;52.850;6.970;2023-03-31T08:32:16;15.20;76.40
60313;DHT22;46158;52.850;6.970;2023-03-31T08:34:42;15.20;76.40
60313;DHT22;46158;52.850;6.970;2023-03-31T08:37:08;15.30;76.40
60313;DHT22;46158;52.850;6.970;2023-03-31T08:39:34;15.30;76.50
60313;DHT22;46158;52.850;6.970;2023-03-31T08:42:16;15.20;76.50
60313;DHT22;46158;52.850;6.970;2023-03-31T08:45:53;15.30;76.70
60313;DHT22;46158;52.850;6.970;2023-03-31T08:47:58;15.30;76.70
60313;DHT22;46158;52.850;6.970;2023-03-31T08:50:27;15.30;76.80
60313;DHT22;46158;52.850;6.970;2023-03-31T08:53:19;15.30;76.80
60313;DHT22;46158;52.850;6.970;2023-03-31T08:55:53;15.30;76.80
60313;DHT22;46158;52.850;6.970;2023-03-31T09:06:42;15.30;77.10
60313;DHT22;46158;52.850;6.970;2023-03-31T09:15:27;15.30;77.10
60313;DHT22;46158;52.850;6.970;2023-03-31T09:17:56;15.30;77.20
60313;DHT22;46158;52.850;6.970;2023-03-31T09:20:35;15.30;77.10
60313;DHT22;46158;52.850;6.970;2023-03-31T09:23:23;15.30;77.10
60313;DHT22;46158;52.850;6.970;2023-03-31T09:25:50;15.30;77.20
60313;DHT22;46158;52.850;6.970;2023-03-31T09:28:21;15.30;77.20
60313;DHT22;46158;52.850;6.970;2023-03-31T09:30:48;15.30;77.20
60313;DHT22;46158;52.850;6.970;2023-03-31T09:33:28;15.30;77.20
60313;DHT22;46158;52.850;6.970;2023-03-31T09:36:01;15.40;77.30
60313;DHT22;46158;52.850;6.970;2023-03-31T09:38:28;15.40;77.40
60313;DHT22;46158;52.850;6.970;2023-03-31T09:40:55;15.40;77.40
60313;DHT22;46158;52.850;6.970;2023-03-31T09:43:26;15.40;77.40
60313;DHT22;46158;52.850;6.970;2023-03-31T09:45:53;15.40;77.50
60313;DHT22;46158;52.850;6.970;2023-03-31T09:48:31;15.40;77.40
60313;DHT22;46158;52.850;6.970;2023-03-31T09:51:06;15.40;77.40
60313;DHT22;46158;52.850;6.970;2023-03-31T09:53:47;15.40;77.50
60313;DHT22;46158;52.850;6.970;2023-03-31T09:56:31;15.50;77.60
60313;DHT22;46158;52.850;6.970;2023-03-31T09:59:01;15.50;77.60
60313;DHT22;46158;52.850;6.970;2023-03-31T10:01:27;15.50;77.60
60313;DHT22;46158;52.850;6.970;2023-03-31T10:03:54;15.50;77.60
60313;DHT22;46158;52.850;6.970;2023-03-31T10:06:23;15.40;77.60
60313;DHT22;46158;52.850;6.970;2023-03-31T10:11:16;15.50;77.90
60313;DHT22;46158;52.850;6.970;2023-03-31T10:14:02;15.50;77.80
60313;DHT22;46158;52.850;6.970;2023-03-31T10:16:32;15.50;77.80
60313;DHT22;46158;52.850;6.970;2023-03-31T10:21:47;15.50;77.80
60313;DHT22;46158;52.850;6.970;2023-03-31T10:24:17;15.50;77.80
60313;DHT22;46158;52.850;6.970;2023-03-31T10:26:47;15.50;77.80
60313;DHT22;46158;52.850;6.970;2023-03-31T10:29:21;15.50;77.70
60313;DHT22;46158;52.850;6.970;2023-03-31T10:31:50;15.50;77.70
60313;DHT22;46158;52.850;6.970;2023-03-31T10:34:21;15.50;77.80
60313;DHT22;46158;52.850;6.970;2023-03-31T10:36:51;15.50;77.70
60313;DHT22;46158;52.850;6.970;2023-03-31T10:39:18;15.50;77.70
60313;DHT22;46158;52.850;6.970;2023-03-31T10:41:53;15.50;77.70
60313;DHT22;46158;52.850;6.970;2023-03-31T10:47:19;15.50;77.60
60313;DHT22;46158;52.850;6.970;2023-03-31T10:49:49;15.50;77.60
60313;DHT22;46158;52.850;6.970;2023-03-31T10:52:22;15.50;77.60
60313;DHT22;46158;52.850;6.970;2023-03-31T10:54:54;15.50;77.60
60313;DHT22;46158;52.850;6.970;2023-03-31T10:57:41;15.50;77.60
60313;DHT22;46158;52.850;6.970;2023-03-31T11:00:31;15.60;77.60
60313;DHT22;46158;52.850;6.970;2023-03-31T11:05:51;15.60;77.60
60313;DHT22;46158;52.850;6.970;2023-03-31T11:08:49;15.60;77.50
60313;DHT22;46158;52.850;6.970;2023-03-31T11:14:31;15.60;77.50
60313;DHT22;46158;52.850;6.970;2023-03-31T11:17:19;15.60;77.50
60313;DHT22;46158;52.850;6.970;2023-03-31T11:20:01;15.60;77.50
60313;DHT22;46158;52.850;6.970;2023-03-31T11:22:43;15.60;77.50
60313;DHT22;46158;52.850;6.970;2023-03-31T11:25:22;15.60;77.40
60313;DHT22;46158;52.850;6.970;2023-03-31T11:33:56;15.60;77.30
60313;DHT22;46158;52.850;6.970;2023-03-31T11:36:31;15.60;77.20
60313;DHT22;46158;52.850;6.970;2023-03-31T11:39:17;15.60;77.30
60313;DHT22;46158;52.850;6.970;2023-03-31T11:41:52;15.60;77.30
60313;DHT22;46158;52.850;6.970;2023-03-31T11:44:22;15.60;77.30
60313;DHT22;46158;52.850;6.970;2023-03-31T11:46:53;15.60;77.30
60313;DHT22;46158;52.850;6.970;2023-03-31T11:52:01;15.60;77.30
60313;DHT22;46158;52.850;6.970;2023-03-31T12:00:20;15.60;77.30
60313;DHT22;46158;52.850;6.970;2023-03-31T12:02:56;15.60;77.30
60313;DHT22;46158;52.850;6.970;2023-03-31T12:05:25;15.60;77.30
60313;DHT22;46158;52.850;6.970;2023-03-31T12:08:02;15.70;77.40
60313;DHT22;46158;52.850;6.970;2023-03-31T12:10:38;15.70;77.40
60313;DHT22;46158;52.850;6.970;2023-03-31T12:15:50;15.60;77.30
60313;DHT22;46158;52.850;6.970;2023-03-31T12:18:22;15.70;77.40
60313;DHT22;46158;52.850;6.970;2023-03-31T12:20:55;15.70;77.30
60313;DHT22;46158;52.850;6.970;2023-03-31T12:23:30;15.70;77.30
60313;DHT22;46158;52.850;6.970;2023-03-31T12:29:01;15.70;77.20
60313;DHT22;46158;52.850;6.970;2023-03-31T12:31:35;15.70;77.20
60313;DHT22;46158;52.850;6.970;2023-03-31T12:34:06;15.70;77.30
60313;DHT22;46158;52.850;6.970;2023-03-31T12:37:23;15.70;77.20
60313;DHT22;46158;52.850;6.970;2023-03-31T12:43:27;15.70;77.20
60313;DHT22;46158;52.850;6.970;2023-03-31T12:47:24;15.70;77.20
60313;DHT22;46158;52.850;6.970;2023-03-31T12:49:42;15.80;77.20
60313;DHT22;46158;52.850;6.970;2023-03-31T12:55:21;15.70;77.10
60313;DHT22;46158;52.850;6.970;2023-03-31T13:11:43;15.80;77.00
60313;DHT22;46158;52.850;6.970;2023-03-31T13:16:42;15.80;76.90
60313;DHT22;46158;52.850;6.970;2023-03-31T13:19:11;15.80;76.90
60313;DHT22;46158;52.850;6.970;2023-03-31T13:21:59;15.80;76.90
60313;DHT22;46158;52.850;6.970;2023-03-31T13:24:27;15.80;76.80
60313;DHT22;46158;52.850;6.970;2023-03-31T13:26:54;15.80;76.90
60313;DHT22;46158;52.850;6.970;2023-03-31T13:29:41;15.80;76.80
60313;DHT22;46158;52.850;6.970;2023-03-31T13:32:19;15.80;76.70
60313;DHT22;46158;52.850;6.970;2023-03-31T13:35:09;15.80;76.70
60313;DHT22;46158;52.850;6.970;2023-03-31T13:38:08;15.80;76.70
60313;DHT22;46158;52.850;6.970;2023-03-31T13:43:53;15.80;76.70
60313;DHT22;46158;52.850;6.970;2023-03-31T13:52:12;15.80;76.60
60313;DHT22;46158;52.850;6.970;2023-03-31T14:06:47;15.90;76.50
60313;DHT22;46158;52.850;6.970;2023-03-31T14:09:25;15.90;76.60
60313;DHT22;46158;52.850;6.970;2023-03-31T14:12:02;15.80;76.50
60313;DHT22;46158;52.850;6.970;2023-03-31T14:14:43;15.90;76.60
60313;DHT22;46158;52.850;6.970;2023-03-31T14:17:10;15.90;76.60
60313;DHT22;46158;52.850;6.970;2023-03-31T14:20:22;15.90;76.70
60313;DHT22;46158;52.850;6.970;2023-03-31T14:26:06;15.90;76.70
60313;DHT22;46158;52.850;6.970;2023-03-31T14:28:55;15.90;76.80
60313;DHT22;46158;52.850;6.970;2023-03-31T14:31:45;15.90;76.90
60313;DHT22;46158;52.850;6.970;2023-03-31T14:37:17;15.90;77.10
60313;DHT22;46158;52.850;6.970;2023-03-31T14:39:47;15.90;77.10
60313;DHT22;46158;52.850;6.970;2023-03-31T14:42:34;15.90;77.10
60313;DHT22;46158;52.850;6.970;2023-03-31T14:45:22;16.00;77.00
60313;DHT22;46158;52.850;6.970;2023-03-31T14:48:12;16.00;77.40
60313;DHT22;46158;52.850;6.970;2023-03-31T14:50:42;16.00;77.10
60313;DHT22;46158;52.850;6.970;2023-03-31T14:53:15;16.00;77.20
60313;DHT22;46158;52.850;6.970;2023-03-31T14:55:43;16.00;77.10
60313;DHT22;46158;52.850;6.970;2023-03-31T14:58:13;16.00;77.20
60313;DHT22;46158;52.850;6.970;2023-03-31T15:00:42;16.00;77.10
60313;DHT22;46158;52.850;6.970;2023-03-31T15:03:13;16.00;77.10
60313;DHT22;46158;52.850;6.970;2023-03-31T15:05:42;16.00;77.10
60313;DHT22;46158;52.850;6.970;2023-03-31T15:08:12;16.00;77.10
60313;DHT22;46158;52.850;6.970;2023-03-31T15:10:47;16.00;77.10
60313;DHT22;46158;52.850;6.970;2023-03-31T15:13:37;16.00;77.20
60313;DHT22;46158;52.850;6.970;2023-03-31T15:16:30;16.00;77.10
60313;DHT22;46158;52.850;6.970;2023-03-31T15:18:58;16.00;77.20
60313;DHT22;46158;52.850;6.970;2023-03-31T15:21:31;16.00;77.20
60313;DHT22;46158;52.850;6.970;2023-03-31T15:23:58;16.00;77.30
60313;DHT22;46158;52.850;6.970;2023-03-31T15:26:36;16.00;77.30
60313;DHT22;46158;52.850;6.970;2023-03-31T15:29:21;16.00;77.20
60313;DHT22;46158;52.850;6.970;2023-03-31T15:31:49;16.00;77.20
60313;DHT22;46158;52.850;6.970;2023-03-31T15:34:35;16.00;77.30
60313;DHT22;46158;52.850;6.970;2023-03-31T15:37:01;16.00;77.20
60313;DHT22;46158;52.850;6.970;2023-03-31T15:39:32;16.10;78.00
60313;DHT22;46158;52.850;6.970;2023-03-31T15:42:02;16.10;77.30
60313;DHT22;46158;52.850;6.970;2023-03-31T15:44:36;16.10;77.40
60313;DHT22;46158;52.850;6.970;2023-03-31T15:47:12;16.10;77.30
60313;DHT22;46158;52.850;6.970;2023-03-31T15:49:47;16.10;77.30
60313;DHT22;46158;52.850;6.970;2023-03-31T15:52:45;16.10;77.30
60313;DHT22;46158;52.850;6.970;2023-03-31T15:57:56;16.00;77.20
60313;DHT22;46158;52.850;6.970;2023-03-31T16:00:50;16.10;77.30
60313;DHT22;46158;52.850;6.970;2023-03-31T16:03:34;16.10;77.20
60313;DHT22;46158;52.850;6.970;2023-03-31T16:06:37;16.10;77.20
60313;DHT22;46158;52.850;6.970;2023-03-31T16:09:06;16.10;76.90
60313;DHT22;46158;52.850;6.970;2023-03-31T16:14:09;16.10;76.90
60313;DHT22;46158;52.850;6.970;2023-03-31T16:16:37;16.00;76.80
60313;DHT22;46158;52.850;6.970;2023-03-31T16:19:08;16.10;77.00
60313;DHT22;46158;52.850;6.970;2023-03-31T16:21:46;16.10;77.00
60313;DHT22;46158;52.850;6.970;2023-03-31T16:24:15;16.10;77.00
60313;DHT22;46158;52.850;6.970;2023-03-31T16:26:41;16.10;77.00
60313;DHT22;46158;52.850;6.970;2023-03-31T16:29:08;16.10;77.00
60313;DHT22;46158;52.850;6.970;2023-03-31T16:31:39;16.10;77.00
60313;DHT22;46158;52.850;6.970;2023-03-31T16:34:07;16.10;77.00
60313;DHT22;46158;52.850;6.970;2023-03-31T16:36:34;16.10;77.00
60313;DHT22;46158;52.850;6.970;2023-03-31T16:39:00;16.10;77.00
60313;DHT22;46158;52.850;6.970;2023-03-31T16:41:30;16.10;77.00
60313;DHT22;46158;52.850;6.970;2023-03-31T16:44:00;16.10;77.00
60313;DHT22;46158;52.850;6.970;2023-03-31T16:46:26;16.10;77.70
60313;DHT22;46158;52.850;6.970;2023-03-31T16:48:52;16.10;76.90
60313;DHT22;46158;52.850;6.970;2023-03-31T16:51:21;16.10;76.90
60313;DHT22;46158;52.850;6.970;2023-03-31T16:53:48;16.10;76.90
60313;DHT22;46158;52.850;6.970;2023-03-31T16:56:14;16.10;76.80
60313;DHT22;46158;52.850;6.970;2023-03-31T16:58:40;16.10;76.80
60313;DHT22;46158;52.850;6.970;2023-03-31T17:01:10;16.10;76.80
60313;DHT22;46158;52.850;6.970;2023-03-31T17:03:42;16.10;76.80
60313;DHT22;46158;52.850;6.970;2023-03-31T17:06:12;16.10;76.70
60313;DHT22;46158;52.850;6.970;2023-03-31T17:08:56;16.10;76.70
60313;DHT22;46158;52.850;6.970;2023-03-31T17:11:26;16.10;76.70
60313;DHT22;46158;52.850;6.970;2023-03-31T17:13:56;16.10;76.70
60313;DHT22;46158;52.850;6.970;2023-03-31T17:16:21;16.10;76.50
60313;DHT22;46158;52.850;6.970;2023-03-31T17:18:48;16.10;76.60
60313;DHT22;46158;52.850;6.970;2023-03-31T17:21:14;16.10;76.50
60313;DHT22;46158;52.850;6.970;2023-03-31T17:23:42;16.10;76.40
60313;DHT22;46158;52.850;6.970;2023-03-31T17:26:09;16.10;76.50
60313;DHT22;46158;52.850;6.970;2023-03-31T17:28:37;16.10;76.50
60313;DHT22;46158;52.850;6.970;2023-03-31T17:31:11;16.10;76.50
60313;DHT22;46158;52.850;6.970;2023-03-31T17:33:38;16.10;76.50
60313;DHT22;46158;52.850;6.970;2023-03-31T17:36:04;16.10;76.60
60313;DHT22;46158;52.850;6.970;2023-03-31T17:38:34;16.10;76.70
60313;DHT22;46158;52.850;6.970;2023-03-31T17:41:04;16.10;76.70
60313;DHT22;46158;52.850;6.970;2023-03-31T17:43:30;16.10;76.80
60313;DHT22;46158;52.850;6.970;2023-03-31T17:46:06;16.10;76.80
60313;DHT22;46158;52.850;6.970;2023-03-31T17:48:34;16.10;76.80
60313;DHT22;46158;52.850;6.970;2023-03-31T17:51:09;16.20;76.70
60313;DHT22;46158;52.850;6.970;2023-03-31T17:53:38;16.10;76.60
60313;DHT22;46158;52.850;6.970;2023-03-31T17:56:04;16.10;76.60
60313;DHT22;46158;52.850;6.970;2023-03-31T17:58:31;16.10;76.60
60313;DHT22;46158;52.850;6.970;2023-03-31T18:00:57;16.10;76.70
60313;DHT22;46158;52.850;6.970;2023-03-31T18:03:23;16.10;76.60
60313;DHT22;46158;52.850;6.970;2023-03-31T18:05:49;16.10;76.60
60313;DHT22;46158;52.850;6.970;2023-03-31T18:08:15;16.10;76.70
60313;DHT22;46158;52.850;6.970;2023-03-31T18:10:42;16.10;76.70
60313;DHT22;46158;52.850;6.970;2023-03-31T18:13:08;16.10;76.80
60313;DHT22;46158;52.850;6.970;2023-03-31T18:15:34;16.10;76.80
60313;DHT22;46158;52.850;6.970;2023-03-31T18:18:04;16.10;76.90
60313;DHT22;46158;52.850;6.970;2023-03-31T18:20:30;16.10;76.90
60313;DHT22;46158;52.850;6.970;2023-03-31T18:22:56;16.10;77.00